sensor_id;sensor_type;location;lat;lon;timestamp;temperature;humidity
15676;DHT22;7938;47.666;9.434;2023-04-01T04:02:19;7.40;99.90
15676;DHT22;7938;47.666;9.434;2023-04-01T04:04:46;7.40;99.90
15676;DHT22;7938;47.666;9.434;2023-04-01T04:07:13;7.50;99.90
15676;DHT22;7938;47.666;9.434;2023-04-01T04:09:40;7.50;99.90
15676;DHT22;7938;47.666;9.434;2023-04-01T04:12:07;7.50;99.90
15676;DHT22;7938;47.666;9.434;2023-04-01T04:14:34;7.60;99.90
15676;DHT22;7938;47.666;9.434;2023-04-01T04:17:00;7.50;99.90
15676;DHT22;7938;47.666;9.434;2023-04-01T04:19:32;7.30;99.90
15676;DHT22;7938;47.666;9.434;2023-04-01T04:22:00;7.30;99.90
15676;DHT22;7938;47.666;9.434;2023-04-01T04:24:27;7.20;99.90
15676;DHT22;7938;47.666;9.434;2023-04-01T04:26:54;7.30;99.90
15676;DHT22;7938;47.666;9.434;2023-04-01T04:29:21;7.30;99.90
15676;DHT22;7938;47.666;9.434;2023-04-01T04:31:48;7.20;99.90
15676;DHT22;7938;47.666;9.434;2023-04-01T04:34:15;7.20;99.90
15676;DHT22;7938;47.666;9.434;2023-04-01T04:36:43;7.20;99.90
15676;DHT22;7938;47.666;9.434;2023-04-01T04:39:10;7.30;99.90
15676;DHT22;7938;47.666;9.434;2023-04-01T04:41:38;7.40;99.90
15676;DHT22;7938;47.666;9.434;2023-04-01T04:44:04;7.40;99.90
15676;DHT22;7938;47.666;9.434;2023-04-01T04:46:31;7.40;99.90
15676;DHT22;7938;47.666;9.434;2023-04-01T04:48:58;7.40;99.90
15676;DHT22;7938;47.666;9.434;2023-04-01T04:51:25;7.40;99.90
15676;DHT22;7938;47.666;9.434;2023-04-01T04:53:54;7.40;99.90
15676;DHT22;7938;47.666;9.434;2023-04-01T04:56:22;7.40;99.90
15676;DHT22;7938;47.666;9.434;2023-04-01T04:58:50;7.40;99.90
15676;DHT22;7938;47.666;9.434;2023-04-01T05:01:18;7.50;99.90
15676;DHT22;7938;47.666;9.434;2023-04-01T05:03:45;7.60;99.90
15676;DHT22;7938;47.666;9.434;2023-04-01T05:06:14;7.60;99.90
15676;DHT22;7938;47.666;9.434;2023-04-01T05:08:42;7.50;99.90
15676;DHT22;7938;47.666;9.434;2023-04-01T05:11:13;7.50;99.90
15676;DHT22;7938;47.666;9.434;2023-04-01T05:13:41;7.50;99.90
15676;DHT22;7938;47.666;9.434;2023-04-01T05:16:08;7.40;99.90
15676;DHT22;7938;47.666;9.434;2023-04-01T05:18:35;7.40;99.90
15676;DHT22;7938;47.666;9.434;2023-04-01T05:21:02;7.30;99.90
15676;DHT22;7938;47.666;9.434;2023-04-01T05:23:31;7.30;99.90
15676;DHT22;7938;47.666;9.434;2023-04-01T05:25:58;7.20;99.90
15676;DHT22;7938;47.666;9.434;2023-04-01T05:28:30;7.30;99.90
15676;DHT22;7938;47.666;9.434;2023-04-01T05:30:58;7.20;99.90
15676;DHT22;7938;47.666;9.434;2023-04-01T05:33:25;7.20;99.90
15676;DHT22;7938;47.666;9.434;2023-04-01T05:35:52;7.10;99.90
15676;DHT22;7938;47.666;9.434;2023-04-01T05:38:19;7.00;99.90
15676;DHT22;7938;47.666;9.434;2023-04-01T05:40:46;6.90;99.90
15676;DHT22;7938;47.666;9.434;2023-04-01T05:43:13;6.90;99.90
15676;DHT22;7938;47.666;9.434;2023-04-01T05:45:41;6.90;99.90
15676;DHT22;7938;47.666;9.434;2023-04-01T05:48:08;7.00;99.90
15676;DHT22;7938;47.666;9.434;2023-04-01T05:50:35;6.90;99.90
15676;DHT22;7938;47.666;9.434;2023-04-01T05:53:02;7.00;99.90
15676;DHT22;7938;47.666;9.434;2023-04-01T05:55:29;7.10;99.90
15676;DHT22;7938;47.666;9.434;2023-04-01T05:57:56;7.10;99.90
15676;DHT22;7938;47.666;9.434;2023-04-01T06:00:23;7.30;99.90
15676;DHT22;7938;47.666;9.434;2023-04-01T06:02:51;7.10;99.90
15676;DHT22;7938;47.666;9.434;2023-04-01T06:05:20;7.10;99.90
15676;DHT22;7938;47.666;9.434;2023-04-01T06:07:48;7.20;99.90
15676;DHT22;7938;47.666;9.434;2023-04-01T06:10:18;7.40;99.90
15676;DHT22;7938;47.666;9.434;2023-04-01T06:12:53;7.50;99.90
15676;DHT22;7938;47.666;9.434;2023-04-01T06:15:28;7.70;99.90
15676;DHT22;7938;47.666;9.434;2023-04-01T06:18:11;7.70;99.90
15676;DHT22;7938;47.666;9.434;2023-04-01T06:20:52;7.80;99.90
15676;DHT22;7938;47.666;9.434;2023-04-01T06:23:36;7.80;99.90
15676;DHT22;7938;47.666;9.434;2023-04-01T06:26:17;7.90;99.90
15676;DHT22;7938;47.666;9.434;2023-04-01T06:31:54;8.10;99.90
15676;DHT22;7938;47.666;9.434;2023-04-01T06:34:43;8.10;99.90
15676;DHT22;7938;47.666;9.434;2023-04-01T06:37:27;8.00;99.90
15676;DHT22;7938;47.666;9.434;2023-04-01T06:40:13;7.90;99.90
15676;DHT22;7938;47.666;9.434;2023-04-01T06:42:57;7.90;99.90
15676;DHT22;7938;47.666;9.434;2023-04-01T06:45:34;7.80;99.90
15676;DHT22;7938;47.666;9.434;2023-04-01T06:48:14;8.10;99.90
15676;DHT22;7938;47.666;9.434;2023-04-01T06:50:51;8.50;99.90
15676;DHT22;7938;47.666;9.434;2023-04-01T06:53:28;8.50;99.90
15676;DHT22;7938;47.666;9.434;2023-04-01T06:56:02;8.60;99.90
15676;DHT22;7938;47.666;9.434;2023-04-01T06:58:37;8.70;99.90
15676;DHT22;7938;47.666;9.434;2023-04-01T07:01:07;8.80;99.90
15676;DHT22;7938;47.666;9.434;2023-04-01T07:03:37;8.80;99.90
15676;DHT22;7938;47.666;9.434;2023-04-01T07:06:10;8.90;99.90
15676;DHT22;7938;47.666;9.434;2023-04-01T07:08:42;8.90;99.90
15676;DHT22;7938;47.666;9.434;2023-04-01T07:11:14;8.90;99.90
15676;DHT22;7938;47.666;9.434;2023-04-01T07:13:46;8.90;99.90
15676;DHT22;7938;47.666;9.434;2023-04-01T07:16:18;8.90;99.90
15676;DHT22;7938;47.666;9.434;2023-04-01T07:18:49;9.00;99.90
15676;DHT22;7938;47.666;9.434;2023-04-01T07:21:25;9.20;99.90
15676;DHT22;7938;47.666;9.434;2023-04-01T07:23:56;9.20;99.90
15676;DHT22;7938;47.666;9.434;2023-04-01T07:26:24;9.30;99.90
15676;DHT22;7938;47.666;9.434;2023-04-01T07:28:53;9.50;99.90
15676;DHT22;7938;47.666;9.434;2023-04-01T07:31:29;9.70;99.90
15676;DHT22;7938;47.666;9.434;2023-04-01T07:34:06;9.70;99.90
15676;DHT22;7938;47.666;9.434;2023-04-01T07:36:40;9.80;99.90
15676;DHT22;7938;47.666;9.434;2023-04-01T07:39:18;9.80;99.90
15676;DHT22;7938;47.666;9.434;2023-04-01T07:41:52;9.90;99.90
15676;DHT22;7938;47.666;9.434;2023-04-01T07:44:25;9.80;99.90
15676;DHT22;7938;47.666;9.434;2023-04-01T07:47:16;9.80;99.90
15676;DHT22;7938;47.666;9.434;2023-04-01T07:49:53;9.80;99.90
15676;DHT22;7938;47.666;9.434;2023-04-01T07:52:30;9.80;99.90
15676;DHT22;7938;47.666;9.434;2023-04-01T07:55:06;9.90;99.90
15676;DHT22;7938;47.666;9.434;2023-04-01T07:57:40;9.90;99.90
15676;DHT22;7938;47.666;9.434;2023-04-01T08:00:12;9.90;99.90
15676;DHT22;7938;47.666;9.434;2023-04-01T08:02:52;9.80;99.90
15676;DHT22;7938;47.666;9.434;2023-04-01T08:05:26;9.80;99.90
15676;DHT22;7938;47.666;9.434;2023-04-01T08:08:02;9.80;99.90
15676;DHT22;7938;47.666;9.434;2023-04-01T08:10:35;10.00;99.90
15676;DHT22;7938;47.666;9.434;2023-04-01T08:13:10;10.00;99.90
15676;DHT22;7938;47.666;9.434;2023-04-01T08:15:42;10.10;99.90
15676;DHT22;7938;47.666;9.434;2023-04-01T08:18:22;10.10;99.90
15676;DHT22;7938;47.666;9.434;2023-04-01T08:20:58;10.20;99.90
15676;DHT22;7938;47.666;9.434;2023-04-01T08:23:30;10.20;99.90
15676;DHT22;7938;47.666;9.434;2023-04-01T08:26:01;10.30;99.90
15676;DHT22;7938;47.666;9.434;2023-04-01T08:28:32;10.40;99.90
15676;DHT22;7938;47.666;9.434;2023-04-01T08:31:03;10.40;99.90
15676;DHT22;7938;47.666;9.434;2023-04-01T08:33:31;10.30;99.90
15676;DHT22;7938;47.666;9.434;2023-04-01T08:36:03;10.20;99.90
15676;DHT22;7938;47.666;9.434;2023-04-01T08:38:34;10.10;99.90
15676;DHT22;7938;47.666;9.434;2023-04-01T08:41:19;10.00;99.90
15676;DHT22;7938;47.666;9.434;2023-04-01T08:44:09;10.00;99.90
15676;DHT22;7938;47.666;9.434;2023-04-01T08:47:09;9.90;99.90
15676;DHT22;7938;47.666;9.434;2023-04-01T08:50:01;9.80;99.90
15676;DHT22;7938;47.666;9.434;2023-04-01T08:52:35;9.70;99.90
15676;DHT22;7938;47.666;9.434;2023-04-01T09:01:11;9.60;99.90
15676;DHT22;7938;47.666;9.434;2023-04-01T09:04:14;9.60;99.90
15676;DHT22;7938;47.666;9.434;2023-04-01T09:06:52;9.60;99.90
15676;DHT22;7938;47.666;9.434;2023-04-01T09:10:02;9.50;99.90
15676;DHT22;7938;47.666;9.434;2023-04-01T09:12:52;9.40;99.90
15676;DHT22;7938;47.666;9.434;2023-04-01T09:15:46;9.50;99.90
15676;DHT22;7938;47.666;9.434;2023-04-01T09:18:49;9.50;99.90
15676;DHT22;7938;47.666;9.434;2023-04-01T09:21:28;9.30;99.90
15676;DHT22;7938;47.666;9.434;2023-04-01T09:24:26;9.30;99.90
15676;DHT22;7938;47.666;9.434;2023-04-01T09:27:19;9.30;99.90
15676;DHT22;7938;47.666;9.434;2023-04-01T09:30:27;9.20;99.90
15676;DHT22;7938;47.666;9.434;2023-04-01T09:36:25;9.00;99.90
15676;DHT22;7938;47.666;9.434;2023-04-01T09:38:57;8.90;99.90
15676;DHT22;7938;47.666;9.434;2023-04-01T09:41:30;8.80;99.90
15676;DHT22;7938;47.666;9.434;2023-04-01T09:44:02;8.80;99.90
15676;DHT22;7938;47.666;9.434;2023-04-01T09:46:46;8.80;99.90
15676;DHT22;7938;47.666;9.434;2023-04-01T09:49:43;8.90;99.90
15676;DHT22;7938;47.666;9.434;2023-04-01T09:52:24;8.80;99.90
15676;DHT22;7938;47.666;9.434;2023-04-01T09:55:05;8.90;99.90
15676;DHT22;7938;47.666;9.434;2023-04-01T09:58:00;8.90;99.90
15676;DHT22;7938;47.666;9.434;2023-04-01T10:00:53;8.90;99.90
15676;DHT22;7938;47.666;9.434;2023-04-01T10:03:51;9.00;99.90
15676;DHT22;7938;47.666;9.434;2023-04-01T10:09:59;8.90;99.90
15676;DHT22;7938;47.666;9.434;2023-04-01T10:13:02;8.70;99.90
15676;DHT22;7938;47.666;9.434;2023-04-01T10:16:10;8.80;99.90
15676;DHT22;7938;47.666;9.434;2023-04-01T10:19:24;8.80;99.90
15676;DHT22;7938;47.666;9.434;2023-04-01T10:25:36;9.20;99.90
15676;DHT22;7938;47.666;9.434;2023-04-01T10:28:33;9.50;99.90
15676;DHT22;7938;47.666;9.434;2023-04-01T10:31:25;9.60;99.90
15676;DHT22;7938;47.666;9.434;2023-04-01T10:34:34;9.60;99.90
15676;DHT22;7938;47.666;9.434;2023-04-01T10:37:14;9.80;99.90
15676;DHT22;7938;47.666;9.434;2023-04-01T10:40:12;9.90;99.90
15676;DHT22;7938;47.666;9.434;2023-04-01T10:43:13;10.00;99.90
15676;DHT22;7938;47.666;9.434;2023-04-01T10:49:07;10.00;99.90
15676;DHT22;7938;47.666;9.434;2023-04-01T10:54:49;10.10;99.90
15676;DHT22;7938;47.666;9.434;2023-04-01T10:57:54;10.10;99.90
15676;DHT22;7938;47.666;9.434;2023-04-01T11:01:01;10.40;99.90
15676;DHT22;7938;47.666;9.434;2023-04-01T11:06:56;10.10;99.90
15676;DHT22;7938;47.666;9.434;2023-04-01T11:10:02;10.00;99.90
15676;DHT22;7938;47.666;9.434;2023-04-01T11:21:55;9.50;99.90
15676;DHT22;7938;47.666;9.434;2023-04-01T11:27:42;9.70;99.90
15676;DHT22;7938;47.666;9.434;2023-04-01T11:30:20;9.70;99.90
15676;DHT22;7938;47.666;9.434;2023-04-01T11:32:54;10.00;99.90
15676;DHT22;7938;47.666;9.434;2023-04-01T11:35:51;10.20;99.90
15676;DHT22;7938;47.666;9.434;2023-04-01T11:38:31;10.30;99.90
15676;DHT22;7938;47.666;9.434;2023-04-01T11:41:13;10.50;99.90
15676;DHT22;7938;47.666;9.434;2023-04-01T11:43:55;10.60;99.90
15676;DHT22;7938;47.666;9.434;2023-04-01T11:46:36;10.60;99.90
15676;DHT22;7938;47.666;9.434;2023-04-01T11:49:20;10.50;99.90
15676;DHT22;7938;47.666;9.434;2023-04-01T11:52:07;10.70;99.90
15676;DHT22;7938;47.666;9.434;2023-04-01T11:54:52;10.60;99.90
15676;DHT22;7938;47.666;9.434;2023-04-01T11:57:43;10.60;99.90
15676;DHT22;7938;47.666;9.434;2023-04-01T12:00:35;10.60;99.90
15676;DHT22;7938;47.666;9.434;2023-04-01T12:03:35;10.60;99.90
15676;DHT22;7938;47.666;9.434;2023-04-01T12:06:08;10.50;99.90
15676;DHT22;7938;47.666;9.434;2023-04-01T12:08:49;10.50;99.90
15676;DHT22;7938;47.666;9.434;2023-04-01T12:11:25;10.60;99.90
15676;DHT22;7938;47.666;9.434;2023-04-01T12:14:02;10.60;99.90
15676;DHT22;7938;47.666;9.434;2023-04-01T12:16:41;10.70;99.90
15676;DHT22;7938;47.666;9.434;2023-04-01T12:19:17;11.00;99.90
15676;DHT22;7938;47.666;9.434;2023-04-01T12:21:56;11.30;99.90
15676;DHT22;7938;47.666;9.434;2023-04-01T12:24:44;11.20;99.90
15676;DHT22;7938;47.666;9.434;2023-04-01T12:27:21;11.10;99.90
15676;DHT22;7938;47.666;9.434;2023-04-01T12:30:21;10.90;99.90
15676;DHT22;7938;47.666;9.434;2023-04-01T12:33:03;10.70;99.90
15676;DHT22;7938;47.666;9.434;2023-04-01T12:35:41;10.70;99.90
15676;DHT22;7938;47.666;9.434;2023-04-01T12:38:21;10.70;99.90
15676;DHT22;7938;47.666;9.434;2023-04-01T12:41:05;10.50;99.90
15676;DHT22;7938;47.666;9.434;2023-04-01T12:43:56;10.50;99.90
15676;DHT22;7938;47.666;9.434;2023-04-01T12:46:29;10.30;99.90
15676;DHT22;7938;47.666;9.434;2023-04-01T12:49:20;10.40;99.90
15676;DHT22;7938;47.666;9.434;2023-04-01T12:52:09;11.60;99.90
15676;DHT22;7938;47.666;9.434;2023-04-01T12:55:07;10.30;99.90
15676;DHT22;7938;47.666;9.434;2023-04-01T13:01:00;10.20;99.90
15676;DHT22;7938;47.666;9.434;2023-04-01T13:03:50;10.00;99.90
15676;DHT22;7938;47.666;9.434;2023-04-01T13:06:40;9.90;99.90
15676;DHT22;7938;47.666;9.434;2023-04-01T13:09:19;10.00;99.90
15676;DHT22;7938;47.666;9.434;2023-04-01T13:12:05;10.10;99.90
15676;DHT22;7938;47.666;9.434;2023-04-01T13:14:50;10.10;99.90
15676;DHT22;7938;47.666;9.434;2023-04-01T13:17:29;10.40;99.90
15676;DHT22;7938;47.666;9.434;2023-04-01T13:20:03;10.30;99.90
15676;DHT22;7938;47.666;9.434;2023-04-01T13:22:54;10.40;99.90
15676;DHT22;7938;47.666;9.434;2023-04-01T13:25:30;10.50;99.90
15676;DHT22;7938;47.666;9.434;2023-04-01T13:28:05;10.30;99.90
15676;DHT22;7938;47.666;9.434;2023-04-01T13:30:38;10.10;99.90
15676;DHT22;7938;47.666;9.434;2023-04-01T13:33:16;10.20;99.90
15676;DHT22;7938;47.666;9.434;2023-04-01T13:35:55;10.10;99.90
15676;DHT22;7938;47.666;9.434;2023-04-01T13:41:41;9.90;99.90
15676;DHT22;7938;47.666;9.434;2023-04-01T13:44:16;10.00;99.90
15676;DHT22;7938;47.666;9.434;2023-04-01T13:46:56;10.00;99.90
15676;DHT22;7938;47.666;9.434;2023-04-01T13:53:09;10.00;99.90
15676;DHT22;7938;47.666;9.434;2023-04-01T13:56:03;10.00;99.90
15676;DHT22;7938;47.666;9.434;2023-04-01T13:58:53;10.10;99.90
15676;DHT22;7938;47.666;9.434;2023-04-01T14:01:29;10.10;99.90
15676;DHT22;7938;47.666;9.434;2023-04-01T14:04:20;10.10;99.90
15676;DHT22;7938;47.666;9.434;2023-04-01T14:07:00;10.20;99.90
15676;DHT22;7938;47.666;9.434;2023-04-01T14:09:42;10.30;99.90
15676;DHT22;7938;47.666;9.434;2023-04-01T14:12:22;10.10;99.90
15676;DHT22;7938;47.666;9.434;2023-04-01T14:15:03;10.20;99.90
15676;DHT22;7938;47.666;9.434;2023-04-01T14:17:46;10.10;99.90
15676;DHT22;7938;47.666;9.434;2023-04-01T14:23:03;10.20;99.90
15676;DHT22;7938;47.666;9.434;2023-04-01T14:28:43;10.20;99.90
15676;DHT22;7938;47.666;9.434;2023-04-01T14:31:25;10.20;99.90
15676;DHT22;7938;47.666;9.434;2023-04-01T14:34:01;10.20;99.90
15676;DHT22;7938;47.666;9.434;2023-04-01T14:36:48;10.10;99.90
15676;DHT22;7938;47.666;9.434;2023-04-01T14:39:43;10.10;99.90
15676;DHT22;7938;47.666;9.434;2023-04-01T14:45:36;10.10;99.90
15676;DHT22;7938;47.666;9.434;2023-04-01T14:48:17;10.20;99.90
15676;DHT22;7938;47.666;9.434;2023-04-01T14:50:46;10.30;99.90
15676;DHT22;7938;47.666;9.434;2023-04-01T14:53:26;10.30;99.90
15676;DHT22;7938;47.666;9.434;2023-04-01T14:55:54;10.30;99.90
15676;DHT22;7938;47.666;9.434;2023-04-01T14:58:23;10.40;99.90
15676;DHT22;7938;47.666;9.434;2023-04-01T15:01:07;10.40;99.90
15676;DHT22;7938;47.666;9.434;2023-04-01T15:03:40;10.40;99.90
15676;DHT22;7938;47.666;9.434;2023-04-01T15:06:30;10.30;99.90
15676;DHT22;7938;47.666;9.434;2023-04-01T15:09:03;10.30;99.90
15676;DHT22;7938;47.666;9.434;2023-04-01T15:11:42;10.10;99.90
15676;DHT22;7938;47.666;9.434;2023-04-01T15:17:22;9.60;99.90
15676;DHT22;7938;47.666;9.434;2023-04-01T15:20:15;9.50;99.90
15676;DHT22;7938;47.666;9.434;2023-04-01T15:22:57;9.60;99.90
15676;DHT22;7938;47.666;9.434;2023-04-01T15:25:39;9.70;99.90
15676;DHT22;7938;47.666;9.434;2023-04-01T15:28:20;9.80;99.90
15676;DHT22;7938;47.666;9.434;2023-04-01T15:30:56;9.80;99.90
15676;DHT22;7938;47.666;9.434;2023-04-01T15:33:47;9.80;99.90
15676;DHT22;7938;47.666;9.434;2023-04-01T15:36:27;9.80;99.90
15676;DHT22;7938;47.666;9.434;2023-04-01T15:39:03;9.70;99.90
15676;DHT22;7938;47.666;9.434;2023-04-01T15:41:41;9.70;99.90
15676;DHT22;7938;47.666;9.434;2023-04-01T15:44:39;9.70;99.90
15676;DHT22;7938;47.666;9.434;2023-04-01T15:47:30;9.70;99.90
15676;DHT22;7938;47.666;9.434;2023-04-01T15:52:56;9.30;99.90
15676;DHT22;7938;47.666;9.434;2023-04-01T15:55:27;9.30;99.90
15676;DHT22;7938;47.666;9.434;2023-04-01T15:58:19;9.30;99.90
15676;DHT22;7938;47.666;9.434;2023-04-01T16:00:54;9.20;99.90
15676;DHT22;7938;47.666;9.434;2023-04-01T16:03:35;9.30;99.90
15676;DHT22;7938;47.666;9.434;2023-04-01T16:06:24;9.30;99.90
15676;DHT22;7938;47.666;9.434;2023-04-01T16:09:09;9.30;99.90
15676;DHT22;7938;47.666;9.434;2023-04-01T16:11:43;9.30;99.90
15676;DHT22;7938;47.666;9.434;2023-04-01T16:14:23;9.30;99.90
15676;DHT22;7938;47.666;9.434;2023-04-01T16:17:05;9.30;99.90
15676;DHT22;7938;47.666;9.434;2023-04-01T16:19:38;9.30;99.90
15676;DHT22;7938;47.666;9.434;2023-04-01T16:22:14;9.20;99.90
15676;DHT22;7938;47.666;9.434;2023-04-01T16:24:45;9.00;99.90
15676;DHT22;7938;47.666;9.434;2023-04-01T16:27:18;9.00;99.90
15676;DHT22;7938;47.666;9.434;2023-04-01T16:29:53;9.00;99.90
15676;DHT22;7938;47.666;9.434;2023-04-01T16:32:40;9.40;99.90
15676;DHT22;7938;47.666;9.434;2023-04-01T16:35:25;9.80;99.90
15676;DHT22;7938;47.666;9.434;2023-04-01T16:38:01;10.20;99.90
15676;DHT22;7938;47.666;9.434;2023-04-01T16:40:40;10.10;99.90
15676;DHT22;7938;47.666;9.434;2023-04-01T16:43:16;10.30;99.90
15676;DHT22;7938;47.666;9.434;2023-04-01T16:45:51;10.00;99.90
15676;DHT22;7938;47.666;9.434;2023-04-01T16:48:22;9.70;99.90
15676;DHT22;7938;47.666;9.434;2023-04-01T16:50:55;9.40;99.90
15676;DHT22;7938;47.666;9.434;2023-04-01T16:53:36;9.30;99.90
15676;DHT22;7938;47.666;9.434;2023-04-01T16:56:11;9.30;99.90
15676;DHT22;7938;47.666;9.434;2023-04-01T16:58:42;9.20;99.90
15676;DHT22;7938;47.666;9.434;2023-04-01T17:01:13;9.20;99.90
15676;DHT22;7938;47.666;9.434;2023-04-01T17:03:44;9.20;99.90
15676;DHT22;7938;47.666;9.434;2023-04-01T17:06:19;9.20;99.90
15676;DHT22;7938;47.666;9.434;2023-04-01T17:09:06;9.20;99.90
15676;DHT22;7938;47.666;9.434;2023-04-01T17:11:40;9.20;99.90
15676;DHT22;7938;47.666;9.434;2023-04-01T17:14:19;9.20;99.90
15676;DHT22;7938;47.666;9.434;2023-04-01T17:17:13;9.10;99.90
15676;DHT22;7938;47.666;9.434;2023-04-01T17:19:53;9.10;99.90
15676;DHT22;7938;47.666;9.434;2023-04-01T17:22:32;9.00;99.90
15676;DHT22;7938;47.666;9.434;2023-04-01T17:25:20;8.90;99.90
15676;DHT22;7938;47.666;9.434;2023-04-01T17:27:52;8.80;99.90
15676;DHT22;7938;47.666;9.434;2023-04-01T17:30:28;8.60;99.90
15676;DHT22;7938;47.666;9.434;2023-04-01T17:33:19;8.60;99.90
15676;DHT22;7938;47.666;9.434;2023-04-01T17:35:56;8.60;99.90
15676;DHT22;7938;47.666;9.434;2023-04-01T17:38:41;8.50;99.90
15676;DHT22;7938;47.666;9.434;2023-04-01T17:41:19;8.40;99.90
15676;DHT22;7938;47.666;9.434;2023-04-01T17:43:59;8.40;99.90
15676;DHT22;7938;47.666;9.434;2023-04-01T17:46:35;8.30;99.90
15676;DHT22;7938;47.666;9.434;2023-04-01T17:49:17;8.20;99.90
15676;DHT22;7938;47.666;9.434;2023-04-01T17:51:53;8.10;99.90
15676;DHT22;7938;47.666;9.434;2023-04-01T17:54:26;8.10;99.90
15676;DHT22;7938;47.666;9.434;2023-04-01T17:57:09;8.00;99.90
15676;DHT22;7938;47.666;9.434;2023-04-01T17:59:52;7.90;99.90
15676;DHT22;7938;47.666;9.434;2023-04-01T18:02:27;8.00;99.90
15676;DHT22;7938;47.666;9.434;2023-04-01T18:05:23;8.10;99.90
15676;DHT22;7938;47.666;9.434;2023-04-01T18:08:13;8.00;99.90
15676;DHT22;7938;47.666;9.434;2023-04-01T18:11:00;8.10;99.90
15676;DHT22;7938;47.666;9.434;2023-04-01T18:16:41;7.90;99.90
15676;DHT22;7938;47.666;9.434;2023-04-01T18:19:18;8.00;99.90
15676;DHT22;7938;47.666;9.434;2023-04-01T18:21:53;8.00;99.90
15676;DHT22;7938;47.666;9.434;2023-04-01T18:24:26;8.00;99.90
15676;DHT22;7938;47.666;9.434;2023-04-01T18:27:02;8.00;99.90
15676;DHT22;7938;47.666;9.434;2023-04-01T18:29:39;8.00;99.90
15676;DHT22;7938;47.666;9.434;2023-04-01T18:32:15;7.90;99.90
15676;DHT22;7938;47.666;9.434;2023-04-01T18:34:54;7.80;99.90
15676;DHT22;7938;47.666;9.434;2023-04-01T18:37:27;7.80;99.90
15676;DHT22;7938;47.666;9.434;2023-04-01T18:40:02;7.70;99.90
15676;DHT22;7938;47.666;9.434;2023-04-01T18:42:41;7.70;99.90
15676;DHT22;7938;47.666;9.434;2023-04-01T18:45:19;7.70;99.90
15676;DHT22;7938;47.666;9.434;2023-04-01T18:47:55;7.70;99.90
15676;DHT22;7938;47.666;9.434;2023-04-01T18:50:26;7.60;99.90
15676;DHT22;7938;47.666;9.434;2023-04-01T18:52:58;7.60;99.90
15676;DHT22;7938;47.666;9.434;2023-04-01T18:55:32;7.60;99.90
15676;DHT22;7938;47.666;9.434;2023-04-01T18:58:14;7.50;99.90
15676;DHT22;7938;47.666;9.434;2023-04-01T19:00:49;7.30;99.90
15676;DHT22;7938;47.666;9.434;2023-04-01T19:03:22;7.40;99.90
15676;DHT22;7938;47.666;9.434;2023-04-01T19:05:51;7.40;99.90
15676;DHT22;7938;47.666;9.434;2023-04-01T19:08:25;7.40;99.90
15676;DHT22;7938;47.666;9.434;2023-04-01T19:10:59;7.20;99.90
15676;DHT22;7938;47.666;9.434;2023-04-01T19:13:35;7.20;99.90
15676;DHT22;7938;47.666;9.434;2023-04-01T19:16:12;7.10;99.90
15676;DHT22;7938;47.666;9.434;2023-04-01T19:18:56;7.10;99.90
15676;DHT22;7938;47.666;9.434;2023-04-01T19:21:31;7.00;99.90
15676;DHT22;7938;47.666;9.434;2023-04-01T19:26:58;7.00;99.90
15676;DHT22;7938;47.666;9.434;2023-04-01T19:29:39;7.10;99.90
15676;DHT22;7938;47.666;9.434;2023-04-01T19:32:21;7.10;99.90
15676;DHT22;7938;47.666;9.434;2023-04-01T19:34:57;7.10;99.90
15676;DHT22;7938;47.666;9.434;2023-04-01T19:37:33;7.10;99.90
15676;DHT22;7938;47.666;9.434;2023-04-01T19:40:26;7.10;99.90
15676;DHT22;7938;47.666;9.434;2023-04-01T19:43:01;7.10;99.90
15676;DHT22;7938;47.666;9.434;2023-04-01T19:45:38;7.10;99.90
15676;DHT22;7938;47.666;9.434;2023-04-01T19:48:21;7.00;99.90
15676;DHT22;7938;47.666;9.434;2023-04-01T19:50:55;7.00;99.90
15676;DHT22;7938;47.666;9.434;2023-04-01T19:53:29;7.00;99.90
15676;DHT22;7938;47.666;9.434;2023-04-01T19:56:04;7.00;99.90
15676;DHT22;7938;47.666;9.434;2023-04-01T19:58:36;6.90;99.90
15676;DHT22;7938;47.666;9.434;2023-04-01T20:01:09;6.90;99.90
15676;DHT22;7938;47.666;9.434;2023-04-01T20:03:45;6.90;99.90
15676;DHT22;7938;47.666;9.434;2023-04-01T20:06:22;6.90;99.90
15676;DHT22;7938;47.666;9.434;2023-04-01T20:09:13;6.80;99.90
15676;DHT22;7938;47.666;9.434;2023-04-01T20:11:50;6.80;99.90
15676;DHT22;7938;47.666;9.434;2023-04-01T20:14:26;6.80;99.90
15676;DHT22;7938;47.666;9.434;2023-04-01T20:17:11;6.80;99.90
15676;DHT22;7938;47.666;9.434;2023-04-01T20:19:44;6.70;99.90
15676;DHT22;7938;47.666;9.434;2023-04-01T20:25:15;6.60;99.90
15676;DHT22;7938;47.666;9.434;2023-04-01T20:27:47;6.60;99.90
15676;DHT22;7938;47.666;9.434;2023-04-01T20:33:20;6.60;99.90
15676;DHT22;7938;47.666;9.434;2023-04-01T20:36:06;6.60;99.90
15676;DHT22;7938;47.666;9.434;2023-04-01T20:44:45;6.60;99.90
15676;DHT22;7938;47.666;9.434;2023-04-01T20:47:21;6.70;99.90
15676;DHT22;7938;47.666;9.434;2023-04-01T20:49:55;6.80;99.90
15676;DHT22;7938;47.666;9.434;2023-04-01T20:52:32;6.80;99.90
15676;DHT22;7938;47.666;9.434;2023-04-01T20:55:21;6.80;99.90
15676;DHT22;7938;47.666;9.434;2023-04-01T20:58:00;6.80;99.90
15676;DHT22;7938;47.666;9.434;2023-04-01T21:00:36;6.80;99.90
15676;DHT22;7938;47.666;9.434;2023-04-01T21:03:18;6.60;99.90
15676;DHT22;7938;47.666;9.434;2023-04-01T21:06:10;6.60;99.90
15676;DHT22;7938;47.666;9.434;2023-04-01T21:08:53;6.70;99.90
15676;DHT22;7938;47.666;9.434;2023-04-01T21:11:30;6.70;99.90
15676;DHT22;7938;47.666;9.434;2023-04-01T21:14:15;6.80;99.90
15676;DHT22;7938;47.666;9.434;2023-04-01T21:16:49;6.90;99.90
15676;DHT22;7938;47.666;9.434;2023-04-01T21:19:30;7.00;99.90
15676;DHT22;7938;47.666;9.434;2023-04-01T21:22:11;7.00;99.90
15676;DHT22;7938;47.666;9.434;2023-04-01T21:25:26;7.00;99.90
15676;DHT22;7938;47.666;9.434;2023-04-01T21:28:12;6.90;99.90
15676;DHT22;7938;47.666;9.434;2023-04-01T21:33:59;6.90;99.90
15676;DHT22;7938;47.666;9.434;2023-04-01T21:36:49;6.90;99.90
15676;DHT22;7938;47.666;9.434;2023-04-01T21:39:30;6.90;99.90
15676;DHT22;7938;47.666;9.434;2023-04-01T21:42:19;6.90;99.90
15676;DHT22;7938;47.666;9.434;2023-04-01T21:44:56;6.90;99.90
15676;DHT22;7938;47.666;9.434;2023-04-01T21:50:42;6.90;99.90
15676;DHT22;7938;47.666;9.434;2023-04-01T21:53:44;6.70;99.90
15676;DHT22;7938;47.666;9.434;2023-04-01T21:56:46;6.70;99.90
15676;DHT22;7938;47.666;9.434;2023-04-01T22:02:32;6.60;99.90
15676;DHT22;7938;47.666;9.434;2023-04-01T22:05:06;6.50;99.90
15676;DHT22;7938;47.666;9.434;2023-04-01T22:07:38;6.60;99.90
15676;DHT22;7938;47.666;9.434;2023-04-01T22:10:18;6.60;99.90
15676;DHT22;7938;47.666;9.434;2023-04-01T22:12:52;6.50;99.90
15676;DHT22;7938;47.666;9.434;2023-04-01T22:15:27;6.40;99.90
15676;DHT22;7938;47.666;9.434;2023-04-01T22:18:04;6.30;99.90
15676;DHT22;7938;47.666;9.434;2023-04-01T22:20:38;6.30;99.90
15676;DHT22;7938;47.666;9.434;2023-04-01T22:23:18;6.20;99.90
15676;DHT22;7938;47.666;9.434;2023-04-01T22:25:51;6.20;99.90
15676;DHT22;7938;47.666;9.434;2023-04-01T22:28:23;6.10;99.90
15676;DHT22;7938;47.666;9.434;2023-04-01T22:30:57;6.10;99.90
15676;DHT22;7938;47.666;9.434;2023-04-01T22:33:32;6.10;99.90
15676;DHT22;7938;47.666;9.434;2023-04-01T22:36:10;6.00;99.90
15676;DHT22;7938;47.666;9.434;2023-04-01T22:38:49;5.90;99.90
15676;DHT22;7938;47.666;9.434;2023-04-01T22:41:30;5.70;99.90
15676;DHT22;7938;47.666;9.434;2023-04-01T22:44:00;5.70;99.90
15676;DHT22;7938;47.666;9.434;2023-04-01T22:46:40;5.60;99.90